Terminal Aerodrome Forecast
Issued by NWS Sterling, VA

Home | Current Version | Previous Version | Text Only | Print | Product List | Glossary On
Versions: 1 2 3 4 5 6 7 8 9 10 11 12 13 14 15 16 17 18 19 20 21 22 23 24 25 26
000
FTUS41 KLWX 212300
TAFBWI
TAF
KBWI 212332Z 2200/2306 30015G20KT 3SM -SHRA OVC045
     FM220200 35010KT P6SM OVC050
     FM220700 35010KT P6SM OVC040
     FM221000 36012G18KT P6SM SCT015 OVC040
     FM221200 36013G25KT 3SM -SHRA OVC015
     FM222100 34015G25KT P6SM -SHRA BKN030
     FM230000 33016G25KT P6SM BKN040=

USA.gov is the U.S. government's official web portal to all federal, state and local government web resources and services.